sensor_id;sensor_type;location;lat;lon;timestamp;temperature;humidity
6486;DHT22;3276;48.490;9.222;2023-04-15T00:01:33;3.40;21.80
6486;DHT22;3276;48.490;9.222;2023-04-15T00:04:01;3.40;22.20
6486;DHT22;3276;48.490;9.222;2023-04-15T00:06:26;3.30;22.30
6486;DHT22;3276;48.490;9.222;2023-04-15T00:08:52;3.30;22.20
6486;DHT22;3276;48.490;9.222;2023-04-15T00:11:17;3.30;22.30
6486;DHT22;3276;48.490;9.222;2023-04-15T00:13:44;3.30;22.60
6486;DHT22;3276;48.490;9.222;2023-04-15T00:16:10;3.20;23.10
6486;DHT22;3276;48.490;9.222;2023-04-15T00:18:37;3.20;23.20
6486;DHT22;3276;48.490;9.222;2023-04-15T00:21:03;3.20;23.20
6486;DHT22;3276;48.490;9.222;2023-04-15T00:23:29;3.10;23.60
6486;DHT22;3276;48.490;9.222;2023-04-15T00:25:55;3.10;23.60
6486;DHT22;3276;48.490;9.222;2023-04-15T00:28:20;3.10;23.40
6486;DHT22;3276;48.490;9.222;2023-04-15T00:30:46;3.10;23.30
6486;DHT22;3276;48.490;9.222;2023-04-15T00:33:13;3.10;23.10
6486;DHT22;3276;48.490;9.222;2023-04-15T00:35:39;3.10;23.10
6486;DHT22;3276;48.490;9.222;2023-04-15T00:38:05;3.10;23.20
6486;DHT22;3276;48.490;9.222;2023-04-15T00:40:34;3.00;23.80
6486;DHT22;3276;48.490;9.222;2023-04-15T00:43:00;3.00;24.20
6486;DHT22;3276;48.490;9.222;2023-04-15T00:45:26;2.90;24.10
6486;DHT22;3276;48.490;9.222;2023-04-15T01:51:23;2.90;23.90
6486;DHT22;3276;48.490;9.222;2023-04-15T01:53:49;2.30;27.30
6486;DHT22;3276;48.490;9.222;2023-04-15T01:56:14;2.30;28.50
6486;DHT22;3276;48.490;9.222;2023-04-15T01:58:40;2.30;28.40
6486;DHT22;3276;48.490;9.222;2023-04-15T02:01:06;2.20;28.30
6486;DHT22;3276;48.490;9.222;2023-04-15T02:06:44;2.20;28.50
6486;DHT22;3276;48.490;9.222;2023-04-15T02:09:10;2.10;28.70
6486;DHT22;3276;48.490;9.222;2023-04-15T02:11:36;2.10;28.70
6486;DHT22;3276;48.490;9.222;2023-04-15T02:14:02;2.10;28.70
6486;DHT22;3276;48.490;9.222;2023-04-15T02:16:30;2.10;29.20
6486;DHT22;3276;48.490;9.222;2023-04-15T02:18:56;2.10;29.20
6486;DHT22;3276;48.490;9.222;2023-04-15T02:21:21;2.00;29.10
6486;DHT22;3276;48.490;9.222;2023-04-15T03:20:01;2.00;29.20
6486;DHT22;3276;48.490;9.222;2023-04-15T03:22:29;1.60;32.40
6486;DHT22;3276;48.490;9.222;2023-04-15T03:24:55;1.60;31.80
6486;DHT22;3276;48.490;9.222;2023-04-15T03:27:21;1.60;31.20
6486;DHT22;3276;48.490;9.222;2023-04-15T03:29:46;1.60;32.10
6486;DHT22;3276;48.490;9.222;2023-04-15T03:32:12;1.50;32.30
6486;DHT22;3276;48.490;9.222;2023-04-15T03:34:39;1.50;32.90
6486;DHT22;3276;48.490;9.222;2023-04-15T03:37:05;1.60;31.90
6486;DHT22;3276;48.490;9.222;2023-04-15T03:39:31;1.50;33.20
6486;DHT22;3276;48.490;9.222;2023-04-15T03:41:57;1.60;33.00
6486;DHT22;3276;48.490;9.222;2023-04-15T03:44:23;1.60;33.30
6486;DHT22;3276;48.490;9.222;2023-04-15T03:46:49;1.60;32.90
6486;DHT22;3276;48.490;9.222;2023-04-15T03:49:14;1.60;33.10
6486;DHT22;3276;48.490;9.222;2023-04-15T03:51:40;1.60;32.90
6486;DHT22;3276;48.490;9.222;2023-04-15T03:54:06;1.60;32.60
6486;DHT22;3276;48.490;9.222;2023-04-15T03:56:31;1.60;32.10
6486;DHT22;3276;48.490;9.222;2023-04-15T03:58:57;1.60;31.80
6486;DHT22;3276;48.490;9.222;2023-04-15T04:01:22;1.60;31.30
6486;DHT22;3276;48.490;9.222;2023-04-15T04:47:39;1.60;31.80
6486;DHT22;3276;48.490;9.222;2023-04-15T04:50:05;1.30;35.50
6486;DHT22;3276;48.490;9.222;2023-04-15T04:52:31;1.30;35.00
6486;DHT22;3276;48.490;9.222;2023-04-15T04:54:56;1.40;35.10
6486;DHT22;3276;48.490;9.222;2023-04-15T04:57:22;1.40;34.20
6486;DHT22;3276;48.490;9.222;2023-04-15T04:59:48;1.40;34.80
6486;DHT22;3276;48.490;9.222;2023-04-15T05:02:13;1.40;33.40
6486;DHT22;3276;48.490;9.222;2023-04-15T05:04:39;1.50;33.70
6486;DHT22;3276;48.490;9.222;2023-04-15T05:07:06;1.50;33.00
6486;DHT22;3276;48.490;9.222;2023-04-15T05:09:31;1.60;32.50
6486;DHT22;3276;48.490;9.222;2023-04-15T05:12:00;1.60;32.70
6486;DHT22;3276;48.490;9.222;2023-04-15T05:14:26;1.70;32.20
6486;DHT22;3276;48.490;9.222;2023-04-15T05:16:51;1.70;31.90
6486;DHT22;3276;48.490;9.222;2023-04-15T05:19:17;1.70;31.60
6486;DHT22;3276;48.490;9.222;2023-04-15T05:21:42;1.80;30.80
6486;DHT22;3276;48.490;9.222;2023-04-15T05:24:08;1.80;30.30
6486;DHT22;3276;48.490;9.222;2023-04-15T05:26:34;1.90;30.40
6486;DHT22;3276;48.490;9.222;2023-04-15T05:28:59;2.00;30.50
6486;DHT22;3276;48.490;9.222;2023-04-15T05:31:25;2.30;31.60
6486;DHT22;3276;48.490;9.222;2023-04-15T05:33:51;3.00;30.30
6486;DHT22;3276;48.490;9.222;2023-04-15T05:36:16;3.50;25.60
6486;DHT22;3276;48.490;9.222;2023-04-15T05:38:42;4.20;23.80
6486;DHT22;3276;48.490;9.222;2023-04-15T05:41:08;5.60;20.50
6486;DHT22;3276;48.490;9.222;2023-04-15T05:43:33;7.20;15.00
6486;DHT22;3276;48.490;9.222;2023-04-15T05:45:59;8.10;10.00
6486;DHT22;3276;48.490;9.222;2023-04-15T05:48:24;8.30;7.40
6486;DHT22;3276;48.490;9.222;2023-04-15T05:50:50;9.00;7.00
6486;DHT22;3276;48.490;9.222;2023-04-15T05:53:15;10.30;3.50
6486;DHT22;3276;48.490;9.222;2023-04-15T05:55:41;11.00;1.40
6486;DHT22;3276;48.490;9.222;2023-04-15T05:58:06;11.80;1.00
6486;DHT22;3276;48.490;9.222;2023-04-15T06:00:32;11.70;1.00
6486;DHT22;3276;48.490;9.222;2023-04-15T06:02:58;12.10;1.00
6486;DHT22;3276;48.490;9.222;2023-04-15T06:05:24;13.30;1.00
6486;DHT22;3276;48.490;9.222;2023-04-15T06:07:49;13.40;1.00
6486;DHT22;3276;48.490;9.222;2023-04-15T06:10:16;12.90;1.00
6486;DHT22;3276;48.490;9.222;2023-04-15T06:12:41;12.40;1.00
6486;DHT22;3276;48.490;9.222;2023-04-15T06:15:07;11.90;1.00
6486;DHT22;3276;48.490;9.222;2023-04-15T06:17:35;11.20;1.00
6486;DHT22;3276;48.490;9.222;2023-04-15T06:20:00;10.70;1.00
6486;DHT22;3276;48.490;9.222;2023-04-15T06:22:29;10.50;1.00
6486;DHT22;3276;48.490;9.222;2023-04-15T06:24:54;10.40;1.00
6486;DHT22;3276;48.490;9.222;2023-04-15T06:27:20;10.10;1.00
6486;DHT22;3276;48.490;9.222;2023-04-15T06:29:47;9.80;1.30
6486;DHT22;3276;48.490;9.222;2023-04-15T06:32:12;10.00;1.00
6486;DHT22;3276;48.490;9.222;2023-04-15T06:34:38;10.30;1.00
6486;DHT22;3276;48.490;9.222;2023-04-15T06:37:04;10.10;1.00
6486;DHT22;3276;48.490;9.222;2023-04-15T06:39:29;10.40;1.00
6486;DHT22;3276;48.490;9.222;2023-04-15T06:41:55;10.80;1.00
6486;DHT22;3276;48.490;9.222;2023-04-15T06:44:21;10.80;1.00
6486;DHT22;3276;48.490;9.222;2023-04-15T06:46:46;10.70;1.00
6486;DHT22;3276;48.490;9.222;2023-04-15T06:49:12;10.70;1.00
6486;DHT22;3276;48.490;9.222;2023-04-15T06:51:38;10.70;1.70
6486;DHT22;3276;48.490;9.222;2023-04-15T06:58:59;10.00;24.10
6486;DHT22;3276;48.490;9.222;2023-04-15T07:01:25;10.00;1.50
6486;DHT22;3276;48.490;9.222;2023-04-15T07:03:54;10.10;1.00
6486;DHT22;3276;48.490;9.222;2023-04-15T07:06:19;10.20;1.00
6486;DHT22;3276;48.490;9.222;2023-04-15T07:08:46;10.30;1.00
6486;DHT22;3276;48.490;9.222;2023-04-15T07:11:11;10.40;1.00
6486;DHT22;3276;48.490;9.222;2023-04-15T07:13:37;10.70;1.00
6486;DHT22;3276;48.490;9.222;2023-04-15T07:16:03;11.10;1.00
6486;DHT22;3276;48.490;9.222;2023-04-15T07:18:28;10.90;1.00
6486;DHT22;3276;48.490;9.222;2023-04-15T07:20:54;11.20;1.00
6486;DHT22;3276;48.490;9.222;2023-04-15T07:23:20;11.30;1.00
6486;DHT22;3276;48.490;9.222;2023-04-15T07:25:45;11.80;13.60
6486;DHT22;3276;48.490;9.222;2023-04-15T07:28:11;12.50;11.40
6486;DHT22;3276;48.490;9.222;2023-04-15T07:30:37;13.00;5.40
6486;DHT22;3276;48.490;9.222;2023-04-15T07:37:55;13.70;1.00
6486;DHT22;3276;48.490;9.222;2023-04-15T07:42:46;13.90;11.10
6486;DHT22;3276;48.490;9.222;2023-04-15T07:52:33;13.20;29.40
6486;DHT22;3276;48.490;9.222;2023-04-15T07:55:04;15.00;1.00
6486;DHT22;3276;48.490;9.222;2023-04-15T07:57:30;17.40;1.00
6486;DHT22;3276;48.490;9.222;2023-04-15T07:59:56;19.10;1.00
6486;DHT22;3276;48.490;9.222;2023-04-15T08:02:21;20.90;1.00
6486;DHT22;3276;48.490;9.222;2023-04-15T08:04:47;22.70;1.00
6486;DHT22;3276;48.490;9.222;2023-04-15T08:07:12;24.70;1.00
6486;DHT22;3276;48.490;9.222;2023-04-15T08:09:38;25.90;1.00
6486;DHT22;3276;48.490;9.222;2023-04-15T08:12:04;25.40;1.00
6486;DHT22;3276;48.490;9.222;2023-04-15T08:14:29;26.10;1.00
6486;DHT22;3276;48.490;9.222;2023-04-15T08:19:21;25.10;1.00
6486;DHT22;3276;48.490;9.222;2023-04-15T08:21:47;23.10;1.00
6486;DHT22;3276;48.490;9.222;2023-04-15T08:24:12;22.00;1.00
6486;DHT22;3276;48.490;9.222;2023-04-15T08:26:38;21.10;1.00
6486;DHT22;3276;48.490;9.222;2023-04-15T08:29:04;20.30;1.00
6486;DHT22;3276;48.490;9.222;2023-04-15T08:31:29;19.40;2.10
6486;DHT22;3276;48.490;9.222;2023-04-15T08:58:37;19.40;2.50
6486;DHT22;3276;48.490;9.222;2023-04-15T09:10:49;16.20;16.10
6486;DHT22;3276;48.490;9.222;2023-04-15T09:13:15;15.70;1.00
6486;DHT22;3276;48.490;9.222;2023-04-15T09:15:41;15.70;1.00
6486;DHT22;3276;48.490;9.222;2023-04-15T09:18:07;15.60;1.00
6486;DHT22;3276;48.490;9.222;2023-04-15T09:20:40;16.00;1.00
6486;DHT22;3276;48.490;9.222;2023-04-15T09:23:13;15.90;1.00
6486;DHT22;3276;48.490;9.222;2023-04-15T09:25:39;15.90;1.00
6486;DHT22;3276;48.490;9.222;2023-04-15T09:28:08;15.70;1.00
6486;DHT22;3276;48.490;9.222;2023-04-15T09:30:35;15.60;1.00
6486;DHT22;3276;48.490;9.222;2023-04-15T09:33:02;15.90;1.00
6486;DHT22;3276;48.490;9.222;2023-04-15T09:35:29;16.30;1.00
6486;DHT22;3276;48.490;9.222;2023-04-15T09:38:06;16.30;1.00
6486;DHT22;3276;48.490;9.222;2023-04-15T09:40:35;16.70;1.00
6486;DHT22;3276;48.490;9.222;2023-04-15T09:43:03;16.80;1.00
6486;DHT22;3276;48.490;9.222;2023-04-15T09:45:30;16.50;1.00
6486;DHT22;3276;48.490;9.222;2023-04-15T09:48:16;16.20;1.00
6486;DHT22;3276;48.490;9.222;2023-04-15T09:50:42;15.80;1.00
6486;DHT22;3276;48.490;9.222;2023-04-15T09:53:09;15.50;1.00
6486;DHT22;3276;48.490;9.222;2023-04-15T09:55:36;15.40;1.00
6486;DHT22;3276;48.490;9.222;2023-04-15T09:58:01;15.60;1.00
6486;DHT22;3276;48.490;9.222;2023-04-15T10:00:32;15.70;1.00
6486;DHT22;3276;48.490;9.222;2023-04-15T10:02:58;15.90;1.00
6486;DHT22;3276;48.490;9.222;2023-04-15T10:05:24;16.00;1.00
6486;DHT22;3276;48.490;9.222;2023-04-15T10:07:50;15.90;1.00
6486;DHT22;3276;48.490;9.222;2023-04-15T10:10:16;16.00;1.00
6486;DHT22;3276;48.490;9.222;2023-04-15T10:12:42;16.20;1.00
6486;DHT22;3276;48.490;9.222;2023-04-15T10:15:14;16.50;1.00
6486;DHT22;3276;48.490;9.222;2023-04-15T10:17:44;16.40;1.00
6486;DHT22;3276;48.490;9.222;2023-04-15T10:22:37;16.20;1.00
6486;DHT22;3276;48.490;9.222;2023-04-15T10:25:05;16.50;1.00
6486;DHT22;3276;48.490;9.222;2023-04-15T10:27:30;17.00;1.00
6486;DHT22;3276;48.490;9.222;2023-04-15T10:29:59;17.30;1.00
6486;DHT22;3276;48.490;9.222;2023-04-15T10:32:26;16.70;1.00
6486;DHT22;3276;48.490;9.222;2023-04-15T10:34:51;17.00;1.00
6486;DHT22;3276;48.490;9.222;2023-04-15T10:37:22;17.60;1.00
6486;DHT22;3276;48.490;9.222;2023-04-15T10:39:57;18.00;1.00
6486;DHT22;3276;48.490;9.222;2023-04-15T10:42:22;18.00;1.00
6486;DHT22;3276;48.490;9.222;2023-04-15T10:47:17;17.50;1.00
6486;DHT22;3276;48.490;9.222;2023-04-15T10:49:54;16.00;1.00
6486;DHT22;3276;48.490;9.222;2023-04-15T10:52:25;16.00;1.00
6486;DHT22;3276;48.490;9.222;2023-04-15T10:55:15;15.50;1.00
6486;DHT22;3276;48.490;9.222;2023-04-15T10:57:43;14.70;1.00
6486;DHT22;3276;48.490;9.222;2023-04-15T11:00:16;14.40;1.00
6486;DHT22;3276;48.490;9.222;2023-04-15T11:03:06;14.10;1.00
6486;DHT22;3276;48.490;9.222;2023-04-15T11:08:07;13.80;3.30
6486;DHT22;3276;48.490;9.222;2023-04-15T11:13:03;13.60;1.00
6486;DHT22;3276;48.490;9.222;2023-04-15T11:15:32;13.90;1.00
6486;DHT22;3276;48.490;9.222;2023-04-15T11:18:21;14.20;1.00
6486;DHT22;3276;48.490;9.222;2023-04-15T11:20:55;14.10;1.00
6486;DHT22;3276;48.490;9.222;2023-04-15T11:23:33;14.20;1.00
6486;DHT22;3276;48.490;9.222;2023-04-15T11:26:01;14.50;1.00
6486;DHT22;3276;48.490;9.222;2023-04-15T11:28:28;15.00;1.00
6486;DHT22;3276;48.490;9.222;2023-04-15T11:30:54;15.40;1.00
6486;DHT22;3276;48.490;9.222;2023-04-15T11:33:21;15.30;1.00
6486;DHT22;3276;48.490;9.222;2023-04-15T11:35:47;15.80;1.00
6486;DHT22;3276;48.490;9.222;2023-04-15T11:38:13;16.20;1.00
6486;DHT22;3276;48.490;9.222;2023-04-15T11:40:40;16.50;1.00
6486;DHT22;3276;48.490;9.222;2023-04-15T11:43:13;16.50;1.00
6486;DHT22;3276;48.490;9.222;2023-04-15T11:45:59;16.10;1.00
6486;DHT22;3276;48.490;9.222;2023-04-15T11:48:29;15.70;1.00
6486;DHT22;3276;48.490;9.222;2023-04-15T11:50:56;15.60;1.00
6486;DHT22;3276;48.490;9.222;2023-04-15T11:53:23;15.80;1.00
6486;DHT22;3276;48.490;9.222;2023-04-15T11:55:52;15.90;1.00
6486;DHT22;3276;48.490;9.222;2023-04-15T11:58:23;15.90;1.00
6486;DHT22;3276;48.490;9.222;2023-04-15T12:00:53;16.40;1.00
6486;DHT22;3276;48.490;9.222;2023-04-15T12:03:26;16.40;1.00
6486;DHT22;3276;48.490;9.222;2023-04-15T12:11:16;15.50;1.00
6486;DHT22;3276;48.490;9.222;2023-04-15T12:13:48;15.40;1.00
6486;DHT22;3276;48.490;9.222;2023-04-15T12:16:18;15.40;1.00
6486;DHT22;3276;48.490;9.222;2023-04-15T12:18:45;15.60;1.00
6486;DHT22;3276;48.490;9.222;2023-04-15T12:21:12;15.70;1.00
6486;DHT22;3276;48.490;9.222;2023-04-15T12:23:39;15.80;1.00
6486;DHT22;3276;48.490;9.222;2023-04-15T12:26:11;16.00;1.00
6486;DHT22;3276;48.490;9.222;2023-04-15T12:28:39;15.80;1.00
6486;DHT22;3276;48.490;9.222;2023-04-15T12:31:06;15.50;1.00
6486;DHT22;3276;48.490;9.222;2023-04-15T12:33:33;15.80;1.00
6486;DHT22;3276;48.490;9.222;2023-04-15T12:35:59;15.80;1.00
6486;DHT22;3276;48.490;9.222;2023-04-15T12:38:24;15.90;1.00
6486;DHT22;3276;48.490;9.222;2023-04-15T12:40:50;16.10;1.00
6486;DHT22;3276;48.490;9.222;2023-04-15T12:43:15;15.90;1.00
6486;DHT22;3276;48.490;9.222;2023-04-15T12:45:41;16.20;1.00
6486;DHT22;3276;48.490;9.222;2023-04-15T12:48:07;15.80;1.00
6486;DHT22;3276;48.490;9.222;2023-04-15T12:50:34;15.60;1.00
6486;DHT22;3276;48.490;9.222;2023-04-15T12:53:00;15.20;1.00
6486;DHT22;3276;48.490;9.222;2023-04-15T12:55:25;15.10;1.00
6486;DHT22;3276;48.490;9.222;2023-04-15T12:57:51;15.30;1.00
6486;DHT22;3276;48.490;9.222;2023-04-15T13:00:17;15.60;1.00
6486;DHT22;3276;48.490;9.222;2023-04-15T13:02:43;16.00;1.00
6486;DHT22;3276;48.490;9.222;2023-04-15T13:05:08;15.80;1.00
6486;DHT22;3276;48.490;9.222;2023-04-15T13:07:34;15.60;1.00
6486;DHT22;3276;48.490;9.222;2023-04-15T13:10:00;15.80;1.00
6486;DHT22;3276;48.490;9.222;2023-04-15T13:12:26;15.60;1.00
6486;DHT22;3276;48.490;9.222;2023-04-15T13:14:51;15.70;1.00
6486;DHT22;3276;48.490;9.222;2023-04-15T13:17:17;15.60;1.00
6486;DHT22;3276;48.490;9.222;2023-04-15T13:19:44;15.20;1.00
6486;DHT22;3276;48.490;9.222;2023-04-15T13:22:10;15.10;1.00
6486;DHT22;3276;48.490;9.222;2023-04-15T13:24:36;14.80;1.00
6486;DHT22;3276;48.490;9.222;2023-04-15T13:27:03;14.10;1.00
6486;DHT22;3276;48.490;9.222;2023-04-15T13:29:29;13.60;1.00
6486;DHT22;3276;48.490;9.222;2023-04-15T13:31:55;13.40;1.00
6486;DHT22;3276;48.490;9.222;2023-04-15T13:34:20;13.10;1.00
6486;DHT22;3276;48.490;9.222;2023-04-15T13:39:12;12.50;1.00
6486;DHT22;3276;48.490;9.222;2023-04-15T13:41:38;12.30;1.00
6486;DHT22;3276;48.490;9.222;2023-04-15T13:44:04;12.40;1.00
6486;DHT22;3276;48.490;9.222;2023-04-15T13:46:30;12.40;1.00
6486;DHT22;3276;48.490;9.222;2023-04-15T13:48:55;12.60;1.00
6486;DHT22;3276;48.490;9.222;2023-04-15T13:51:21;12.80;1.00
6486;DHT22;3276;48.490;9.222;2023-04-15T13:53:47;13.00;1.00
6486;DHT22;3276;48.490;9.222;2023-04-15T13:56:12;13.00;1.00
6486;DHT22;3276;48.490;9.222;2023-04-15T13:58:39;13.00;1.00
6486;DHT22;3276;48.490;9.222;2023-04-15T14:01:05;13.10;1.00
6486;DHT22;3276;48.490;9.222;2023-04-15T14:03:31;13.20;1.00
6486;DHT22;3276;48.490;9.222;2023-04-15T14:05:56;13.30;1.00
6486;DHT22;3276;48.490;9.222;2023-04-15T14:08:23;13.50;1.00
6486;DHT22;3276;48.490;9.222;2023-04-15T14:10:49;13.60;1.00
6486;DHT22;3276;48.490;9.222;2023-04-15T14:13:15;13.60;1.00
6486;DHT22;3276;48.490;9.222;2023-04-15T14:15:41;13.70;1.00
6486;DHT22;3276;48.490;9.222;2023-04-15T14:18:07;13.70;1.00
6486;DHT22;3276;48.490;9.222;2023-04-15T14:20:32;13.70;1.00
6486;DHT22;3276;48.490;9.222;2023-04-15T14:22:58;13.40;1.00
6486;DHT22;3276;48.490;9.222;2023-04-15T14:25:24;13.00;1.00
6486;DHT22;3276;48.490;9.222;2023-04-15T14:27:51;12.70;1.00
6486;DHT22;3276;48.490;9.222;2023-04-15T14:30:16;12.50;1.00
6486;DHT22;3276;48.490;9.222;2023-04-15T14:32:42;12.00;1.00
6486;DHT22;3276;48.490;9.222;2023-04-15T14:35:08;11.70;1.00
6486;DHT22;3276;48.490;9.222;2023-04-15T14:37:33;11.70;1.00
6486;DHT22;3276;48.490;9.222;2023-04-15T14:39:59;11.50;1.00
6486;DHT22;3276;48.490;9.222;2023-04-15T14:42:24;11.70;1.00
6486;DHT22;3276;48.490;9.222;2023-04-15T14:44:50;11.90;1.00
6486;DHT22;3276;48.490;9.222;2023-04-15T14:47:15;12.00;1.00
6486;DHT22;3276;48.490;9.222;2023-04-15T14:49:41;12.10;1.00
6486;DHT22;3276;48.490;9.222;2023-04-15T14:52:07;12.10;1.00
6486;DHT22;3276;48.490;9.222;2023-04-15T14:54:32;12.10;1.00
6486;DHT22;3276;48.490;9.222;2023-04-15T14:56:58;12.20;1.00
6486;DHT22;3276;48.490;9.222;2023-04-15T14:59:23;12.10;1.00
6486;DHT22;3276;48.490;9.222;2023-04-15T15:01:49;11.90;1.00
6486;DHT22;3276;48.490;9.222;2023-04-15T15:04:15;11.80;1.00
6486;DHT22;3276;48.490;9.222;2023-04-15T15:06:40;11.80;1.00
6486;DHT22;3276;48.490;9.222;2023-04-15T15:09:06;11.90;1.00
6486;DHT22;3276;48.490;9.222;2023-04-15T15:11:31;12.00;1.00
6486;DHT22;3276;48.490;9.222;2023-04-15T15:13:57;12.00;1.00
6486;DHT22;3276;48.490;9.222;2023-04-15T15:16:23;12.10;1.00
6486;DHT22;3276;48.490;9.222;2023-04-15T15:18:49;12.00;1.00
6486;DHT22;3276;48.490;9.222;2023-04-15T15:21:16;11.90;1.00
6486;DHT22;3276;48.490;9.222;2023-04-15T15:23:41;12.00;1.00
6486;DHT22;3276;48.490;9.222;2023-04-15T15:26:07;12.00;1.00
6486;DHT22;3276;48.490;9.222;2023-04-15T15:28:33;11.90;1.00
6486;DHT22;3276;48.490;9.222;2023-04-15T15:30:59;11.90;1.00
6486;DHT22;3276;48.490;9.222;2023-04-15T15:33:24;11.90;1.00
6486;DHT22;3276;48.490;9.222;2023-04-15T15:35:50;11.90;1.00
6486;DHT22;3276;48.490;9.222;2023-04-15T15:38:16;11.90;1.00
6486;DHT22;3276;48.490;9.222;2023-04-15T15:40:41;11.90;1.00
6486;DHT22;3276;48.490;9.222;2023-04-15T15:43:07;11.80;1.00
6486;DHT22;3276;48.490;9.222;2023-04-15T15:45:34;11.70;1.00
6486;DHT22;3276;48.490;9.222;2023-04-15T15:48:00;11.60;1.00
6486;DHT22;3276;48.490;9.222;2023-04-15T15:50:26;11.40;1.00
6486;DHT22;3276;48.490;9.222;2023-04-15T15:52:52;11.20;1.00
6486;DHT22;3276;48.490;9.222;2023-04-15T15:55:17;11.10;1.00
6486;DHT22;3276;48.490;9.222;2023-04-15T15:57:43;11.00;1.00
6486;DHT22;3276;48.490;9.222;2023-04-15T16:00:09;10.90;1.00
6486;DHT22;3276;48.490;9.222;2023-04-15T16:02:36;10.90;1.00
6486;DHT22;3276;48.490;9.222;2023-04-15T16:05:02;10.90;1.00
6486;DHT22;3276;48.490;9.222;2023-04-15T16:07:27;10.90;1.00
6486;DHT22;3276;48.490;9.222;2023-04-15T16:09:53;10.90;1.00
6486;DHT22;3276;48.490;9.222;2023-04-15T16:12:18;10.90;1.00
6486;DHT22;3276;48.490;9.222;2023-04-15T16:14:44;10.90;1.00
6486;DHT22;3276;48.490;9.222;2023-04-15T16:17:11;10.80;1.00
6486;DHT22;3276;48.490;9.222;2023-04-15T16:19:37;10.70;1.00
6486;DHT22;3276;48.490;9.222;2023-04-15T16:22:02;10.70;1.00
6486;DHT22;3276;48.490;9.222;2023-04-15T16:24:28;10.70;1.00
6486;DHT22;3276;48.490;9.222;2023-04-15T16:26:54;10.70;1.00
6486;DHT22;3276;48.490;9.222;2023-04-15T16:29:24;10.70;1.00
6486;DHT22;3276;48.490;9.222;2023-04-15T16:31:50;10.70;1.00
6486;DHT22;3276;48.490;9.222;2023-04-15T16:34:15;10.60;1.00
6486;DHT22;3276;48.490;9.222;2023-04-15T16:36:41;10.60;1.00
6486;DHT22;3276;48.490;9.222;2023-04-15T16:39:07;10.60;1.00
6486;DHT22;3276;48.490;9.222;2023-04-15T16:41:33;10.50;1.00
6486;DHT22;3276;48.490;9.222;2023-04-15T16:43:59;10.60;1.00
6486;DHT22;3276;48.490;9.222;2023-04-15T16:46:26;10.50;1.00
6486;DHT22;3276;48.490;9.222;2023-04-15T16:48:52;10.50;1.00
6486;DHT22;3276;48.490;9.222;2023-04-15T16:51:18;10.40;1.00
6486;DHT22;3276;48.490;9.222;2023-04-15T16:53:43;10.40;1.00
6486;DHT22;3276;48.490;9.222;2023-04-15T16:56:09;10.50;1.00
6486;DHT22;3276;48.490;9.222;2023-04-15T16:58:35;10.60;1.00
6486;DHT22;3276;48.490;9.222;2023-04-15T17:01:00;10.50;1.00
6486;DHT22;3276;48.490;9.222;2023-04-15T17:03:26;10.50;1.00
6486;DHT22;3276;48.490;9.222;2023-04-15T17:05:52;10.50;1.00
6486;DHT22;3276;48.490;9.222;2023-04-15T17:08:17;10.30;1.00
6486;DHT22;3276;48.490;9.222;2023-04-15T17:10:43;10.10;1.50
6486;DHT22;3276;48.490;9.222;2023-04-15T17:13:08;10.00;2.10
6486;DHT22;3276;48.490;9.222;2023-04-15T17:15:34;9.90;3.60
6486;DHT22;3276;48.490;9.222;2023-04-15T17:17:59;9.90;4.50
6486;DHT22;3276;48.490;9.222;2023-04-15T17:20:26;9.90;4.00
6486;DHT22;3276;48.490;9.222;2023-04-15T17:22:51;9.80;5.80
6486;DHT22;3276;48.490;9.222;2023-04-15T17:25:17;9.60;5.70
6486;DHT22;3276;48.490;9.222;2023-04-15T17:27:43;9.40;8.00
6486;DHT22;3276;48.490;9.222;2023-04-15T17:30:09;9.40;9.40
6486;DHT22;3276;48.490;9.222;2023-04-15T17:32:35;9.30;10.50
6486;DHT22;3276;48.490;9.222;2023-04-15T17:35:03;9.20;11.50
6486;DHT22;3276;48.490;9.222;2023-04-15T17:37:33;9.20;13.20
6486;DHT22;3276;48.490;9.222;2023-04-15T17:39:59;9.10;13.90
6486;DHT22;3276;48.490;9.222;2023-04-15T17:42:25;9.00;14.60
6486;DHT22;3276;48.490;9.222;2023-04-15T17:44:50;9.00;15.60
6486;DHT22;3276;48.490;9.222;2023-04-15T17:47:16;8.90;16.10
6486;DHT22;3276;48.490;9.222;2023-04-15T17:49:42;8.90;16.60
6486;DHT22;3276;48.490;9.222;2023-04-15T17:52:08;8.90;18.00
6486;DHT22;3276;48.490;9.222;2023-04-15T17:54:34;8.80;18.30
6486;DHT22;3276;48.490;9.222;2023-04-15T17:57:00;8.80;19.00
6486;DHT22;3276;48.490;9.222;2023-04-15T17:59:27;8.70;20.10
6486;DHT22;3276;48.490;9.222;2023-04-15T18:01:53;8.80;21.60
6486;DHT22;3276;48.490;9.222;2023-04-15T18:04:18;8.60;22.50
6486;DHT22;3276;48.490;9.222;2023-04-15T18:06:44;8.50;23.30
6486;DHT22;3276;48.490;9.222;2023-04-15T18:09:10;8.50;24.60
6486;DHT22;3276;48.490;9.222;2023-04-15T18:11:36;8.40;24.70
6486;DHT22;3276;48.490;9.222;2023-04-15T18:14:03;8.40;26.00
6486;DHT22;3276;48.490;9.222;2023-04-15T18:16:29;8.40;25.90
6486;DHT22;3276;48.490;9.222;2023-04-15T18:18:54;8.30;26.90
6486;DHT22;3276;48.490;9.222;2023-04-15T18:21:20;8.30;27.10
6486;DHT22;3276;48.490;9.222;2023-04-15T18:23:45;8.30;28.00
6486;DHT22;3276;48.490;9.222;2023-04-15T18:31:04;8.40;28.50
6486;DHT22;3276;48.490;9.222;2023-04-15T18:33:30;8.40;28.40
6486;DHT22;3276;48.490;9.222;2023-04-15T19:10:05;8.40;27.80
6486;DHT22;3276;48.490;9.222;2023-04-15T19:12:32;7.60;36.00
6486;DHT22;3276;48.490;9.222;2023-04-15T19:14:58;7.60;36.50
6486;DHT22;3276;48.490;9.222;2023-04-15T19:17:23;7.60;36.80
6486;DHT22;3276;48.490;9.222;2023-04-15T19:19:49;7.60;36.20
6486;DHT22;3276;48.490;9.222;2023-04-15T19:22:15;7.60;35.70
6486;DHT22;3276;48.490;9.222;2023-04-15T19:27:07;7.60;36.50
6486;DHT22;3276;48.490;9.222;2023-04-15T19:29:32;7.70;38.20
6486;DHT22;3276;48.490;9.222;2023-04-15T19:31:58;7.70;37.90
6486;DHT22;3276;48.490;9.222;2023-04-15T19:36:53;7.70;38.20
6486;DHT22;3276;48.490;9.222;2023-04-15T19:39:18;7.80;38.20
6486;DHT22;3276;48.490;9.222;2023-04-15T19:41:44;7.80;38.70
6486;DHT22;3276;48.490;9.222;2023-04-15T19:44:10;7.80;39.50
6486;DHT22;3276;48.490;9.222;2023-04-15T19:46:38;7.80;39.10
6486;DHT22;3276;48.490;9.222;2023-04-15T19:49:04;7.80;40.70
6486;DHT22;3276;48.490;9.222;2023-04-15T19:51:29;7.90;40.60
6486;DHT22;3276;48.490;9.222;2023-04-15T19:53:56;7.90;40.10
6486;DHT22;3276;48.490;9.222;2023-04-15T19:56:22;7.90;39.50
6486;DHT22;3276;48.490;9.222;2023-04-15T19:58:48;7.90;40.00
6486;DHT22;3276;48.490;9.222;2023-04-15T20:01:17;7.80;40.40
6486;DHT22;3276;48.490;9.222;2023-04-15T20:03:43;7.80;40.50
6486;DHT22;3276;48.490;9.222;2023-04-15T20:06:08;7.80;40.40
6486;DHT22;3276;48.490;9.222;2023-04-15T20:08:35;7.80;41.30
6486;DHT22;3276;48.490;9.222;2023-04-15T20:11:00;7.80;40.50
6486;DHT22;3276;48.490;9.222;2023-04-15T20:13:26;7.70;40.40
6486;DHT22;3276;48.490;9.222;2023-04-15T20:15:52;7.70;41.10
6486;DHT22;3276;48.490;9.222;2023-04-15T20:18:17;7.70;42.70
6486;DHT22;3276;48.490;9.222;2023-04-15T20:20:43;7.70;44.60
6486;DHT22;3276;48.490;9.222;2023-04-15T20:23:09;7.70;44.40
6486;DHT22;3276;48.490;9.222;2023-04-15T20:25:35;7.80;43.20
6486;DHT22;3276;48.490;9.222;2023-04-15T20:28:01;7.80;42.80
6486;DHT22;3276;48.490;9.222;2023-04-15T20:30:26;7.80;43.20
6486;DHT22;3276;48.490;9.222;2023-04-15T20:32:53;7.80;44.10
6486;DHT22;3276;48.490;9.222;2023-04-15T20:35:19;7.90;42.80
6486;DHT22;3276;48.490;9.222;2023-04-15T20:37:44;7.80;43.60
6486;DHT22;3276;48.490;9.222;2023-04-15T20:40:12;7.70;44.70
6486;DHT22;3276;48.490;9.222;2023-04-15T20:42:38;7.70;45.40
6486;DHT22;3276;48.490;9.222;2023-04-15T20:45:04;7.60;46.30
6486;DHT22;3276;48.490;9.222;2023-04-15T20:47:31;7.70;45.50
6486;DHT22;3276;48.490;9.222;2023-04-15T20:49:56;7.70;46.50
6486;DHT22;3276;48.490;9.222;2023-04-15T20:52:22;7.70;45.50
6486;DHT22;3276;48.490;9.222;2023-04-15T20:54:48;7.70;45.40
6486;DHT22;3276;48.490;9.222;2023-04-15T20:57:14;7.60;45.70